createdAt,value
2023-04-15T00:02:17.974Z,54.26
2023-04-15T00:04:49.149Z,54.35
2023-04-15T00:07:19.695Z,54.43
2023-04-15T00:09:50.078Z,54.53
2023-04-15T00:12:21.401Z,54.59
2023-04-15T00:14:52.178Z,54.44
2023-04-15T00:17:22.488Z,54.44
2023-04-15T00:19:53.155Z,54.34
2023-04-15T00:22:23.927Z,54.28
2023-04-15T00:24:54.755Z,54.29
2023-04-15T00:27:26.341Z,54.40
2023-04-15T00:29:57.058Z,54.24
2023-04-15T00:32:27.856Z,53.88
2023-04-15T00:34:58.593Z,53.24
2023-04-15T00:37:29.134Z,53.12
2023-04-15T00:39:59.734Z,52.98
2023-04-15T00:42:31.183Z,53.24
2023-04-15T00:45:02.977Z,53.53
2023-04-15T00:47:34.585Z,53.93
2023-04-15T00:50:05.533Z,54.40
2023-04-15T00:52:35.922Z,54.72
2023-04-15T00:55:08.521Z,54.88
2023-04-15T00:57:39.021Z,55.23
2023-04-15T01:00:11.970Z,55.24
2023-04-15T01:02:42.853Z,55.16
2023-04-15T01:05:13.554Z,55.37
2023-04-15T01:07:44.266Z,55.08
2023-04-15T01:10:14.890Z,55.18
2023-04-15T01:12:45.750Z,55.24
2023-04-15T01:15:16.412Z,55.17
2023-04-15T01:17:47.231Z,55.41
2023-04-15T01:20:18.014Z,55.27
2023-04-15T01:22:48.424Z,55.38
2023-04-15T01:25:20.826Z,55.42
2023-04-15T01:27:52.716Z,55.44
2023-04-15T01:30:23.241Z,55.20
2023-04-15T01:32:53.557Z,55.05
2023-04-15T01:35:24.862Z,54.71
2023-04-15T01:37:55.679Z,54.60
2023-04-15T01:40:26.666Z,54.51
2023-04-15T01:42:57.924Z,54.37
2023-04-15T01:45:28.817Z,53.99
2023-04-15T01:47:59.101Z,53.66
2023-04-15T01:50:29.948Z,53.11
2023-04-15T01:53:00.332Z,52.70
2023-04-15T01:55:30.833Z,52.54
2023-04-15T01:58:05.055Z,52.37
2023-04-15T02:00:35.384Z,52.41
2023-04-15T02:03:06.441Z,52.41
2023-04-15T02:05:37.953Z,52.74
2023-04-15T02:08:08.981Z,53.11
2023-04-15T02:10:39.552Z,53.31
2023-04-15T02:13:11.055Z,53.48
2023-04-15T02:15:41.847Z,53.94
2023-04-15T02:18:11.940Z,54.14
2023-04-15T02:20:43.892Z,54.32
2023-04-15T02:23:15.271Z,54.58
2023-04-15T02:25:53.296Z,54.51
2023-04-15T02:28:24.649Z,54.71
2023-04-15T02:30:57.365Z,54.58
2023-04-15T02:33:28.390Z,54.63
2023-04-15T02:35:59.190Z,54.29
2023-04-15T02:38:30.790Z,54.43
2023-04-15T02:41:01.414Z,54.19
2023-04-15T02:43:31.560Z,53.95
2023-04-15T02:46:02.886Z,53.71
2023-04-15T02:48:34.594Z,53.45
2023-04-15T02:51:15.738Z,53.27
2023-04-15T02:53:47.071Z,52.99
2023-04-15T02:56:17.805Z,52.87
2023-04-15T02:58:50.307Z,52.32
2023-04-15T03:01:20.933Z,51.68
2023-04-15T03:03:51.979Z,51.27
2023-04-15T03:06:22.817Z,50.80
2023-04-15T03:08:53.114Z,50.33
2023-04-15T03:11:23.319Z,49.59
2023-04-15T03:13:53.521Z,49.40
2023-04-15T03:16:23.798Z,48.90
2023-04-15T03:18:54.588Z,47.44
2023-04-15T03:21:24.726Z,45.21
2023-04-15T03:23:55.015Z,43.23
2023-04-15T03:26:29.662Z,41.84
2023-04-15T03:29:00.197Z,40.55
2023-04-15T03:31:30.783Z,38.36
2023-04-15T03:34:03.333Z,36.16
2023-04-15T03:36:36.724Z,34.77
2023-04-15T03:39:07.092Z,33.50
2023-04-15T03:41:37.361Z,32.92
2023-04-15T03:44:07.986Z,32.89
2023-04-15T03:46:38.396Z,32.74
2023-04-15T03:49:09.846Z,31.74
2023-04-15T03:51:41.645Z,29.83
2023-04-15T03:54:12.954Z,28.37
2023-04-15T03:56:44.801Z,26.81
2023-04-15T03:59:15.167Z,25.70
2023-04-15T04:01:46.029Z,24.44
2023-04-15T04:04:17.000Z,23.08
2023-04-15T04:06:47.928Z,21.63
2023-04-15T04:09:19.257Z,20.60
2023-04-15T04:11:50.498Z,19.85
2023-04-15T04:14:23.095Z,18.29
2023-04-15T04:16:53.400Z,17.74
2023-04-15T04:19:24.098Z,17.08
2023-04-15T04:21:55.149Z,16.32
2023-04-15T04:24:25.550Z,15.51
2023-04-15T04:26:57.917Z,14.76
2023-04-15T04:29:28.507Z,14.14
2023-04-15T04:31:59.285Z,13.94
2023-04-15T04:34:29.674Z,13.34
2023-04-15T04:37:11.989Z,12.99
2023-04-15T04:39:42.303Z,12.31
2023-04-15T04:42:12.934Z,12.51
2023-04-15T04:44:43.641Z,12.53
2023-04-15T04:47:13.844Z,11.99
2023-04-15T04:49:45.016Z,11.51
2023-04-15T04:52:16.028Z,11.39
2023-04-15T04:54:47.061Z,11.51
2023-04-15T04:57:17.830Z,12.00
2023-04-15T04:59:49.246Z,12.04
2023-04-15T05:02:26.909Z,12.49
2023-04-15T05:04:58.226Z,11.89
2023-04-15T05:07:29.199Z,11.48
2023-04-15T05:09:59.305Z,11.18
2023-04-15T05:12:29.611Z,10.71
2023-04-15T05:15:01.004Z,10.72
2023-04-15T05:17:33.092Z,10.38
2023-04-15T05:20:04.112Z,9.97
2023-04-15T05:22:35.779Z,9.95
2023-04-15T05:25:07.633Z,9.51
2023-04-15T05:27:38.350Z,9.11
2023-04-15T05:30:13.545Z,9.01
2023-04-15T05:32:45.535Z,8.80
2023-04-15T05:35:17.413Z,8.42
2023-04-15T05:37:49.244Z,8.10
2023-04-15T05:40:22.643Z,7.52
2023-04-15T05:42:52.889Z,8.62
2023-04-15T05:45:23.264Z,8.93
2023-04-15T05:47:54.469Z,9.61
2023-04-15T05:50:27.514Z,10.52
2023-04-15T05:53:01.211Z,9.55
2023-04-15T05:55:36.350Z,9.61
2023-04-15T05:58:07.810Z,9.62
2023-04-15T06:00:41.370Z,9.11
2023-04-15T06:03:12.274Z,8.80
2023-04-15T06:05:45.003Z,8.12
2023-04-15T06:08:18.069Z,7.23
2023-04-15T06:10:52.079Z,7.05
2023-04-15T06:13:24.938Z,6.36
2023-04-15T06:15:56.005Z,6.16
2023-04-15T06:18:28.462Z,5.91
2023-04-15T06:21:00.890Z,6.05
2023-04-15T06:23:36.214Z,5.99
2023-04-15T06:26:06.714Z,6.01
2023-04-15T06:28:38.007Z,6.01
2023-04-15T06:31:10.923Z,6.07
2023-04-15T06:33:41.748Z,6.03
2023-04-15T06:36:12.393Z,5.72
2023-04-15T06:38:42.737Z,5.93
2023-04-15T06:41:13.033Z,5.54
2023-04-15T06:43:43.612Z,5.33
2023-04-15T06:46:16.518Z,5.13
2023-04-15T06:48:47.386Z,4.67
2023-04-15T06:51:18.235Z,4.38
2023-04-15T06:53:48.975Z,4.12
2023-04-15T06:56:19.580Z,3.84
2023-04-15T06:58:50.521Z,3.89
2023-04-15T07:01:23.995Z,4.02
2023-04-15T07:03:54.856Z,3.96
2023-04-15T07:06:25.801Z,4.15
2023-04-15T07:08:57.617Z,4.10
2023-04-15T07:11:30.054Z,3.87
2023-04-15T07:14:14.699Z,4.18
2023-04-15T07:16:45.628Z,4.39
2023-04-15T07:19:15.957Z,4.56
2023-04-15T07:21:47.465Z,4.55
2023-04-15T07:24:19.509Z,4.54
2023-04-15T07:26:50.018Z,4.45
2023-04-15T07:29:21.066Z,4.60
2023-04-15T07:31:52.138Z,4.70
2023-04-15T07:34:23.315Z,4.83
2023-04-15T07:36:54.726Z,5.11
2023-04-15T07:39:26.952Z,5.16
2023-04-15T07:41:59.175Z,4.97
2023-04-15T07:44:29.965Z,4.83
2023-04-15T07:47:02.169Z,5.03
2023-04-15T07:49:33.084Z,5.08
2023-04-15T07:52:04.288Z,4.75
2023-04-15T07:54:35.945Z,5.12
2023-04-15T07:57:06.570Z,5.47
2023-04-15T07:59:39.064Z,5.36
2023-04-15T08:02:13.002Z,5.67
2023-04-15T08:04:44.822Z,6.10
2023-04-15T08:07:17.859Z,6.29
2023-04-15T08:09:48.533Z,6.91
2023-04-15T08:12:19.325Z,7.60
2023-04-15T08:14:50.480Z,8.75
2023-04-15T08:17:21.655Z,10.02
2023-04-15T08:19:53.625Z,11.31
2023-04-15T08:22:27.432Z,12.57
2023-04-15T08:24:59.433Z,14.03
2023-04-15T08:27:30.071Z,14.75
2023-04-15T08:30:03.428Z,15.64
2023-04-15T08:32:36.507Z,16.25
2023-04-15T08:35:10.312Z,16.93
2023-04-15T08:37:57.721Z,17.43
2023-04-15T08:40:34.445Z,18.07
2023-04-15T08:43:09.521Z,18.52
2023-04-15T08:45:41.337Z,18.48
2023-04-15T08:48:11.957Z,18.56
2023-04-15T08:50:42.648Z,18.87
2023-04-15T08:53:14.380Z,19.23
2023-04-15T08:55:46.572Z,19.50
2023-04-15T08:58:21.301Z,19.60
2023-04-15T09:00:53.348Z,19.82
2023-04-15T09:03:33.039Z,20.09
2023-04-15T09:06:09.318Z,20.17
2023-04-15T09:08:45.247Z,20.13
2023-04-15T09:11:19.463Z,20.18
2023-04-15T09:13:54.016Z,20.45
2023-04-15T09:16:24.620Z,20.51
2023-04-15T09:18:56.372Z,20.56
2023-04-15T09:21:37.578Z,20.50
2023-04-15T09:24:08.561Z,20.61
2023-04-15T09:26:45.064Z,20.84
2023-04-15T09:29:18.331Z,20.48
2023-04-15T09:31:50.185Z,20.89
2023-04-15T09:34:23.406Z,20.93
2023-04-15T09:36:57.931Z,20.97
2023-04-15T09:39:30.440Z,21.08
2023-04-15T09:42:10.167Z,21.14
2023-04-15T09:44:42.016Z,21.02
2023-04-15T09:47:30.038Z,20.63
2023-04-15T09:50:00.810Z,20.72
2023-04-15T09:52:31.814Z,20.75
2023-04-15T09:55:06.297Z,20.81
2023-04-15T09:57:41.644Z,21.09
2023-04-15T10:00:13.699Z,20.69
2023-04-15T10:02:44.493Z,20.84
2023-04-15T10:05:17.990Z,20.73
2023-04-15T10:07:48.785Z,20.87
2023-04-15T10:10:19.366Z,20.68
2023-04-15T10:12:53.792Z,20.78
2023-04-15T10:15:25.396Z,20.44
2023-04-15T10:17:58.020Z,20.27
2023-04-15T10:20:28.420Z,20.27
2023-04-15T10:22:59.214Z,20.43
2023-04-15T10:25:30.768Z,20.61
2023-04-15T10:28:02.067Z,20.66
2023-04-15T10:30:36.435Z,20.51
2023-04-15T10:33:07.866Z,20.46
2023-04-15T10:35:41.508Z,20.40
2023-04-15T10:38:36.626Z,20.12
2023-04-15T10:41:19.545Z,20.29
2023-04-15T10:43:53.097Z,20.32
2023-04-15T10:46:37.334Z,20.30
2023-04-15T10:49:11.982Z,20.14
2023-04-15T10:51:44.768Z,20.20
2023-04-15T10:54:17.624Z,20.39
2023-04-15T10:56:53.430Z,20.29
2023-04-15T10:59:24.166Z,20.33
2023-04-15T11:01:59.928Z,20.66
2023-04-15T11:04:55.096Z,20.68
2023-04-15T11:07:40.487Z,20.51
2023-04-15T11:10:52.365Z,20.68
2023-04-15T11:13:29.095Z,20.74
2023-04-15T11:16:03.666Z,20.32
2023-04-15T11:18:37.273Z,20.27
2023-04-15T11:21:11.942Z,20.44
2023-04-15T11:23:47.303Z,20.68
2023-04-15T11:26:27.951Z,20.75
2023-04-15T11:29:01.832Z,20.63
2023-04-15T11:31:37.297Z,20.70
2023-04-15T11:34:07.729Z,20.65
2023-04-15T11:36:38.506Z,20.93
2023-04-15T11:39:09.061Z,20.76
2023-04-15T11:41:39.730Z,20.56
2023-04-15T11:44:18.975Z,20.50
2023-04-15T11:46:50.407Z,20.54
2023-04-15T11:49:31.083Z,20.63
2023-04-15T11:52:02.085Z,20.75
2023-04-15T11:54:32.543Z,20.83
2023-04-15T11:57:03.923Z,20.75
2023-04-15T11:59:45.976Z,20.48
2023-04-15T12:02:20.339Z,20.60
2023-04-15T12:04:50.970Z,20.66
2023-04-15T12:07:21.492Z,20.77
2023-04-15T12:09:57.966Z,20.86
2023-04-15T12:12:30.679Z,20.91
2023-04-15T12:15:01.714Z,20.75
2023-04-15T12:17:32.232Z,20.52
2023-04-15T12:20:27.120Z,20.66
2023-04-15T12:23:07.830Z,21.02
2023-04-15T12:25:38.441Z,20.99
2023-04-15T12:28:13.842Z,20.94
2023-04-15T12:30:52.277Z,20.89
2023-04-15T12:33:23.483Z,20.76
2023-04-15T12:35:57.384Z,20.93
2023-04-15T12:38:29.267Z,20.60
2023-04-15T12:40:59.553Z,20.75
2023-04-15T12:43:30.222Z,21.04
2023-04-15T12:46:00.327Z,21.08
2023-04-15T12:48:33.025Z,20.71
2023-04-15T12:51:05.673Z,20.59
2023-04-15T12:53:37.162Z,20.71
2023-04-15T12:56:09.550Z,20.83
2023-04-15T12:58:40.088Z,20.95
2023-04-15T13:01:11.281Z,20.97
2023-04-15T13:03:42.253Z,20.77
2023-04-15T13:06:13.140Z,20.94
2023-04-15T13:08:58.343Z,20.98
2023-04-15T13:11:34.348Z,20.98
2023-04-15T13:14:06.652Z,20.87
2023-04-15T13:16:37.320Z,20.76
2023-04-15T13:19:08.525Z,20.72
2023-04-15T13:21:39.188Z,20.69
2023-04-15T13:24:09.699Z,20.66
2023-04-15T13:26:40.456Z,20.77
2023-04-15T13:29:11.980Z,20.55
2023-04-15T13:31:43.493Z,20.87
2023-04-15T13:34:14.115Z,20.82
2023-04-15T13:36:45.884Z,20.73
2023-04-15T13:39:17.766Z,21.04
2023-04-15T13:41:49.827Z,20.88
2023-04-15T13:44:22.856Z,20.66
2023-04-15T13:46:54.219Z,20.68
2023-04-15T13:49:26.028Z,20.85
2023-04-15T13:51:57.941Z,20.70
2023-04-15T13:54:37.481Z,20.94
2023-04-15T13:57:08.918Z,20.77
2023-04-15T13:59:39.883Z,20.94
2023-04-15T14:02:12.973Z,20.79
2023-04-15T14:04:44.601Z,20.47
2023-04-15T14:07:15.140Z,20.56
2023-04-15T14:09:46.305Z,20.79
2023-04-15T14:12:16.897Z,20.66
2023-04-15T14:14:47.613Z,20.82
2023-04-15T14:17:18.449Z,20.60
2023-04-15T14:19:49.654Z,20.79
2023-04-15T14:22:20.433Z,20.85
2023-04-15T14:24:58.473Z,20.82
2023-04-15T14:27:29.144Z,20.92
2023-04-15T14:29:59.880Z,21.26
2023-04-15T14:32:30.446Z,21.48
2023-04-15T14:35:00.874Z,21.40
2023-04-15T14:37:31.573Z,21.38
2023-04-15T14:40:02.025Z,21.44
2023-04-15T14:42:32.482Z,21.61
2023-04-15T14:45:03.218Z,21.64
2023-04-15T14:47:33.701Z,22.08
2023-04-15T14:50:05.496Z,22.15
2023-04-15T14:52:38.854Z,22.02
2023-04-15T14:55:11.833Z,22.08
2023-04-15T14:57:43.727Z,22.28
2023-04-15T15:00:16.357Z,22.45
2023-04-15T15:03:04.288Z,22.62
2023-04-15T15:05:35.466Z,22.79
2023-04-15T15:08:06.132Z,22.85
2023-04-15T15:10:49.261Z,23.11
2023-04-15T15:13:21.553Z,23.35
2023-04-15T15:16:00.208Z,23.63
2023-04-15T15:18:30.899Z,23.85
2023-04-15T15:21:01.869Z,24.08
2023-04-15T15:23:32.261Z,24.32
2023-04-15T15:26:02.837Z,24.58
2023-04-15T15:28:33.251Z,24.81
2023-04-15T15:31:04.273Z,24.99
2023-04-15T15:33:35.433Z,25.33
2023-04-15T15:36:07.018Z,25.49
2023-04-15T15:38:39.527Z,25.73
2023-04-15T15:41:10.078Z,26.04
2023-04-15T15:43:43.440Z,26.27
2023-04-15T15:46:13.839Z,26.50
2023-04-15T15:48:44.917Z,26.89
2023-04-15T15:51:15.750Z,26.97
2023-04-15T15:53:49.643Z,27.19
2023-04-15T15:56:20.089Z,27.43
2023-04-15T15:58:52.767Z,27.72
2023-04-15T16:01:23.821Z,27.90
2023-04-15T16:03:54.730Z,28.14
2023-04-15T16:06:27.676Z,28.33
2023-04-15T16:08:58.105Z,28.53
2023-04-15T16:11:29.449Z,28.65
2023-04-15T16:14:02.162Z,29.06
2023-04-15T16:16:32.601Z,29.11
2023-04-15T16:19:06.735Z,29.20
2023-04-15T16:21:37.358Z,29.30
2023-04-15T16:24:08.944Z,29.58
2023-04-15T16:26:39.699Z,29.75
2023-04-15T16:29:14.499Z,29.96
2023-04-15T16:31:45.077Z,29.98
2023-04-15T16:34:17.444Z,29.99
2023-04-15T16:36:49.716Z,30.15
2023-04-15T16:39:24.224Z,30.31
2023-04-15T16:41:55.343Z,30.36
2023-04-15T16:44:26.103Z,30.41
2023-04-15T16:46:59.392Z,30.56
2023-04-15T16:49:30.007Z,30.75
2023-04-15T16:52:00.739Z,30.88
2023-04-15T16:54:32.417Z,30.87
2023-04-15T16:57:03.178Z,30.83
2023-04-15T16:59:33.459Z,31.16
2023-04-15T17:02:03.903Z,31.13
2023-04-15T17:04:35.663Z,31.10
2023-04-15T17:07:11.021Z,31.09
2023-04-15T17:09:41.968Z,31.09
2023-04-15T17:12:12.500Z,31.22
2023-04-15T17:14:42.721Z,31.48
2023-04-15T17:17:13.133Z,31.37
2023-04-15T17:19:43.661Z,31.50
2023-04-15T17:22:14.418Z,31.62
2023-04-15T17:24:44.895Z,31.58
2023-04-15T17:27:15.356Z,31.74
2023-04-15T17:29:46.573Z,31.82
2023-04-15T17:32:18.129Z,31.91
2023-04-15T17:34:50.773Z,31.84
2023-04-15T17:37:21.744Z,32.04
2023-04-15T17:39:52.651Z,32.12
2023-04-15T17:42:23.109Z,32.28
2023-04-15T17:44:56.709Z,32.47
2023-04-15T17:47:27.831Z,32.37
2023-04-15T17:49:59.244Z,32.31
2023-04-15T17:52:31.083Z,32.36
2023-04-15T17:55:01.717Z,32.47
2023-04-15T17:57:32.421Z,32.49
2023-04-15T18:00:10.910Z,32.51
2023-04-15T18:02:42.386Z,32.54
2023-04-15T18:05:12.898Z,32.58
2023-04-15T18:07:43.770Z,32.65
2023-04-15T18:10:14.880Z,32.80
2023-04-15T18:12:45.219Z,32.97
2023-04-15T18:15:15.554Z,33.03
2023-04-15T18:17:46.473Z,33.00
2023-04-15T18:20:16.916Z,33.06
2023-04-15T18:22:47.352Z,33.33
2023-04-15T18:25:18.076Z,33.43
2023-04-15T18:27:48.522Z,33.55
2023-04-15T18:30:19.330Z,33.51
2023-04-15T18:32:49.741Z,33.77
2023-04-15T18:35:20.465Z,33.76
2023-04-15T18:37:51.999Z,33.97
2023-04-15T18:40:22.517Z,34.05
2023-04-15T18:42:52.939Z,34.20
2023-04-15T18:45:23.628Z,34.29
2023-04-15T18:47:54.645Z,34.26
2023-04-15T18:50:26.217Z,34.50
2023-04-15T18:52:59.632Z,34.54
2023-04-15T18:55:30.288Z,34.54
2023-04-15T18:58:08.460Z,34.92
2023-04-15T19:00:44.425Z,34.96
2023-04-15T19:03:15.362Z,35.00
2023-04-15T19:05:45.848Z,35.05
2023-04-15T19:08:17.398Z,35.12
2023-04-15T19:10:50.362Z,35.52
2023-04-15T19:13:22.358Z,35.60
2023-04-15T19:15:52.742Z,35.91
2023-04-15T19:18:23.596Z,36.33
2023-04-15T19:20:56.938Z,36.49
2023-04-15T19:23:28.474Z,36.51
2023-04-15T19:25:59.436Z,36.52
2023-04-15T19:28:30.221Z,36.67
2023-04-15T19:31:01.143Z,36.92
2023-04-15T19:33:32.022Z,36.96
2023-04-15T19:36:05.138Z,37.11
2023-04-15T19:38:37.200Z,37.07
2023-04-15T19:41:09.868Z,37.33
2023-04-15T19:43:40.953Z,37.34
2023-04-15T19:46:12.800Z,37.65
2023-04-15T19:48:43.486Z,37.58
2023-04-15T19:51:14.880Z,37.91
2023-04-15T19:53:45.927Z,37.91
2023-04-15T19:56:16.418Z,37.87
2023-04-15T19:58:52.369Z,38.11
2023-04-15T20:01:23.374Z,38.04
2023-04-15T20:03:55.420Z,38.05
2023-04-15T20:06:30.137Z,38.34
2023-04-15T20:09:00.666Z,38.36
2023-04-15T20:12:47.215Z,38.34
2023-04-15T20:14:25.065Z,38.42
2023-04-15T20:16:55.721Z,38.65
2023-04-15T20:19:28.538Z,38.74
2023-04-15T20:21:59.392Z,38.82
2023-04-15T20:24:31.761Z,38.86
2023-04-15T20:27:03.848Z,38.93
2023-04-15T20:29:38.489Z,39.03
2023-04-15T20:32:11.149Z,39.15
2023-04-15T20:34:42.492Z,39.37
2023-04-15T20:37:13.278Z,39.38
2023-04-15T20:39:45.669Z,39.46
2023-04-15T20:42:16.473Z,39.62
2023-04-15T20:44:48.010Z,39.58
2023-04-15T20:47:18.531Z,39.60
2023-04-15T20:49:49.622Z,39.79
2023-04-15T20:52:20.189Z,40.13
2023-04-15T20:54:50.576Z,40.25
2023-04-15T20:57:21.101Z,40.18
2023-04-15T20:59:51.362Z,40.05
2023-04-15T21:02:21.902Z,40.05
2023-04-15T21:04:52.601Z,40.15
2023-04-15T21:07:23.812Z,40.20
2023-04-15T21:09:55.797Z,40.29
2023-04-15T21:12:26.740Z,40.39
2023-04-15T21:14:57.362Z,40.36
2023-04-15T21:17:28.818Z,40.58
2023-04-15T21:19:59.425Z,40.63
2023-04-15T21:22:29.717Z,40.71
2023-04-15T21:25:01.021Z,40.89
2023-04-15T21:27:31.485Z,40.96
2023-04-15T21:30:02.515Z,41.04
2023-04-15T21:32:32.815Z,41.14
2023-04-15T21:35:05.449Z,41.47
2023-04-15T21:37:37.300Z,41.63
2023-04-15T21:40:10.114Z,42.05
2023-04-15T21:42:42.200Z,42.32
2023-04-15T21:45:14.122Z,42.44
2023-04-15T21:47:56.769Z,42.60
2023-04-15T21:50:36.306Z,42.54
2023-04-15T21:53:09.250Z,42.75
2023-04-15T21:55:39.676Z,42.68
2023-04-15T21:58:10.162Z,42.94
2023-04-15T22:00:40.972Z,43.13
2023-04-15T22:03:12.325Z,43.15
2023-04-15T22:05:46.032Z,43.40
2023-04-15T22:08:16.703Z,43.55
2023-04-15T22:10:47.084Z,43.32
2023-04-15T22:13:20.630Z,43.04
2023-04-15T22:15:51.033Z,43.10
2023-04-15T22:18:22.083Z,42.92
2023-04-15T22:20:53.262Z,42.98
2023-04-15T22:23:23.585Z,43.24
2023-04-15T22:25:54.123Z,43.21
2023-04-15T22:28:24.762Z,43.27
2023-04-15T22:30:56.007Z,43.50
2023-04-15T22:33:26.413Z,43.66
2023-04-15T22:35:57.344Z,43.82
2023-04-15T22:38:27.754Z,43.99
2023-04-15T22:40:58.953Z,44.10
2023-04-15T22:43:29.604Z,44.14
2023-04-15T22:46:00.884Z,44.30
2023-04-15T22:48:31.315Z,44.40
2023-04-15T22:51:04.469Z,44.81
2023-04-15T22:53:35.011Z,44.73
2023-04-15T22:56:05.684Z,44.91
2023-04-15T22:58:37.463Z,44.89
2023-04-15T23:01:08.304Z,44.87
2023-04-15T23:03:56.347Z,45.19
2023-04-15T23:06:36.359Z,45.25
2023-04-15T23:09:06.921Z,45.31
2023-04-15T23:11:37.525Z,45.44
2023-04-15T23:14:07.814Z,45.70
2023-04-15T23:16:38.152Z,45.65
2023-04-15T23:19:08.956Z,45.93
2023-04-15T23:21:39.491Z,46.06
2023-04-15T23:24:10.063Z,46.33
2023-04-15T23:26:40.757Z,46.44
2023-04-15T23:29:11.814Z,46.35
2023-04-15T23:31:42.390Z,46.46
2023-04-15T23:34:12.800Z,46.54
2023-04-15T23:36:43.298Z,46.85
2023-04-15T23:39:13.431Z,46.83
2023-04-15T23:41:43.648Z,46.89
2023-04-15T23:44:13.955Z,47.21
2023-04-15T23:46:44.265Z,47.44
2023-04-15T23:49:14.375Z,47.42
2023-04-15T23:51:44.645Z,47.56
2023-04-15T23:54:16.231Z,47.76
2023-04-15T23:56:46.467Z,47.68
2023-04-15T23:59:19.717Z,47.42
